createdAt,value
2019-06-01T00:01:06.650Z,8.63
2019-06-01T00:03:42.821Z,9.03
2019-06-01T00:06:19.034Z,9.27
2019-06-01T00:08:55.209Z,9.57
2019-06-01T00:11:31.410Z,9.07
2019-06-01T00:14:07.653Z,8.57
2019-06-01T00:16:44.257Z,8.30
2019-06-01T00:19:20.526Z,7.80
2019-06-01T00:21:56.699Z,6.83
2019-06-01T00:24:32.829Z,7.73
2019-06-01T00:27:09.065Z,8.80
2019-06-01T00:29:45.279Z,7.90
2019-06-01T00:32:21.528Z,8.77
2019-06-01T00:34:57.675Z,8.73
2019-06-01T00:37:33.847Z,8.87
2019-06-01T00:40:09.991Z,9.20
2019-06-01T00:42:46.228Z,9.70
2019-06-01T00:45:22.441Z,9.97
2019-06-01T00:47:58.704Z,9.33
2019-06-01T00:50:34.917Z,9.63
2019-06-01T00:53:11.236Z,10.03
2019-06-01T00:55:47.497Z,10.07
2019-06-01T00:58:24.007Z,9.93
2019-06-01T01:01:00.279Z,9.93
2019-06-01T01:03:36.443Z,10.33
2019-06-01T01:06:12.585Z,10.60
2019-06-01T01:08:49.070Z,8.50
2019-06-01T01:11:25.349Z,8.43
2019-06-01T01:14:01.524Z,8.77
2019-06-01T01:16:37.652Z,8.67
2019-06-01T01:19:13.832Z,8.13
2019-06-01T01:21:52.172Z,9.27
2019-06-01T01:24:28.378Z,8.97
2019-06-01T01:27:04.696Z,8.00
2019-06-01T01:29:40.905Z,9.40
2019-06-01T01:32:17.092Z,8.33
2019-06-01T01:34:53.690Z,9.10
2019-06-01T01:37:29.967Z,8.97
2019-06-01T01:40:06.615Z,9.30
2019-06-01T01:42:42.837Z,9.07
2019-06-01T01:45:19.001Z,9.30
2019-06-01T01:47:55.243Z,8.67
2019-06-01T01:50:31.447Z,8.60
2019-06-01T01:53:07.689Z,8.60
2019-06-01T01:55:44.225Z,8.63
2019-06-01T01:58:20.475Z,8.13
2019-06-01T02:00:58.413Z,7.87
2019-06-01T02:03:34.469Z,8.57
2019-06-01T02:06:10.684Z,8.40
2019-06-01T02:08:46.924Z,8.40
2019-06-01T02:11:23.069Z,9.13
2019-06-01T02:13:59.979Z,8.83
2019-06-01T02:16:36.357Z,8.60
2019-06-01T02:19:12.601Z,8.30
2019-06-01T02:21:48.791Z,9.30
2019-06-01T02:24:25.033Z,19.13
2019-06-01T02:27:01.364Z,8.83
2019-06-01T02:29:37.611Z,9.50
2019-06-01T02:32:13.821Z,8.93
2019-06-01T02:34:49.999Z,8.67
2019-06-01T02:37:26.221Z,8.90
2019-06-01T02:40:03.282Z,8.23
2019-06-01T02:42:41.173Z,7.90
2019-06-01T02:45:18.702Z,8.00
2019-06-01T02:47:55.384Z,8.40
2019-06-01T02:50:31.754Z,8.83
2019-06-01T02:53:08.508Z,8.83
2019-06-01T02:55:44.692Z,10.30
2019-06-01T02:58:20.747Z,8.60
2019-06-01T03:01:12.022Z,8.20
2019-06-01T03:03:48.494Z,9.27
2019-06-01T03:06:27.685Z,9.93
2019-06-01T03:09:06.716Z,11.00
2019-06-01T03:11:43.776Z,11.47
2019-06-01T03:14:22.703Z,10.67
2019-06-01T03:17:01.887Z,11.10
2019-06-01T03:19:40.222Z,10.23
2019-06-01T03:22:17.955Z,11.37
2019-06-01T03:24:57.335Z,11.87
2019-06-01T03:27:34.079Z,10.00
2019-06-01T03:30:15.140Z,11.67
2019-06-01T03:32:49.605Z,12.47
2019-06-01T03:35:25.865Z,11.07
2019-06-01T03:38:02.989Z,10.90
2019-06-01T03:40:39.325Z,11.83
2019-06-01T03:43:16.077Z,12.17
2019-06-01T03:45:52.345Z,12.00
2019-06-01T03:48:28.580Z,11.20
2019-06-01T03:51:05.699Z,10.17
2019-06-01T03:53:42.063Z,10.47
2019-06-01T03:56:18.316Z,11.33
2019-06-01T03:58:54.989Z,11.40
2019-06-01T04:01:31.202Z,11.43
2019-06-01T04:04:07.454Z,10.87
2019-06-01T04:06:43.737Z,9.67
2019-06-01T04:09:20.017Z,11.03
2019-06-01T04:11:56.218Z,9.80
2019-06-01T04:14:32.392Z,10.00
2019-06-01T04:17:08.532Z,8.60
2019-06-01T04:19:44.704Z,8.90
2019-06-01T04:22:20.947Z,9.70
2019-06-01T04:24:57.179Z,9.30
2019-06-01T04:27:33.416Z,8.33
2019-06-01T04:30:09.791Z,7.93
2019-06-01T04:32:49.784Z,8.70
2019-06-01T04:35:23.799Z,7.60
2019-06-01T04:38:00.039Z,8.40
2019-06-01T04:40:36.128Z,8.00
2019-06-01T04:43:12.309Z,7.77
2019-06-01T04:45:48.542Z,8.70
2019-06-01T04:48:24.718Z,8.67
2019-06-01T04:51:00.924Z,10.20
2019-06-01T04:53:37.141Z,12.03
2019-06-01T04:56:13.364Z,13.53
2019-06-01T04:58:49.607Z,13.97
2019-06-01T05:01:25.930Z,15.67
2019-06-01T05:04:02.215Z,13.17
2019-06-01T05:06:38.455Z,12.63
2019-06-01T05:09:15.686Z,12.33
2019-06-01T05:11:52.232Z,12.57
2019-06-01T05:14:28.444Z,12.27
2019-06-01T05:17:05.805Z,12.67
2019-06-01T05:19:42.236Z,12.77
2019-06-01T05:22:18.483Z,12.40
2019-06-01T05:24:54.625Z,11.83
2019-06-01T05:27:30.801Z,11.20
2019-06-01T05:30:09.462Z,10.40
2019-06-01T05:32:45.828Z,10.40
2019-06-01T05:35:22.051Z,11.20
2019-06-01T05:37:58.309Z,10.07
2019-06-01T05:40:34.452Z,10.30
2019-06-01T05:43:14.213Z,9.13
2019-06-01T05:45:48.515Z,8.90
2019-06-01T05:48:28.482Z,8.50
2019-06-01T05:51:02.436Z,9.47
2019-06-01T05:53:38.678Z,9.00
2019-06-01T05:56:14.951Z,9.57
2019-06-01T05:58:51.133Z,8.67
2019-06-01T06:01:27.357Z,8.90
2019-06-01T06:04:03.607Z,9.03
2019-06-01T06:06:39.873Z,8.07
2019-06-01T06:09:17.160Z,8.93
2019-06-01T06:11:54.089Z,7.80
2019-06-01T06:14:30.278Z,7.53
2019-06-01T06:17:06.607Z,6.97
2019-06-01T06:19:42.748Z,7.20
2019-06-01T06:22:18.991Z,6.60
2019-06-01T06:24:55.123Z,7.47
